sensor_id;sensor_type;location;lat;lon;timestamp;temperature;humidity
79762;DHT22;69249;42.122;24.734;2023-06-01T00:00:34;19.90;61.10
79762;DHT22;69249;42.122;24.734;2023-06-01T00:03:01;19.90;61.40
79762;DHT22;69249;42.122;24.734;2023-06-01T00:05:26;19.90;61.60
79762;DHT22;69249;42.122;24.734;2023-06-01T00:07:52;19.90;61.60
79762;DHT22;69249;42.122;24.734;2023-06-01T00:10:18;19.90;62.00
79762;DHT22;69249;42.122;24.734;2023-06-01T00:12:43;20.00;61.70
79762;DHT22;69249;42.122;24.734;2023-06-01T00:15:09;20.10;61.30
79762;DHT22;69249;42.122;24.734;2023-06-01T00:17:35;20.10;61.30
79762;DHT22;69249;42.122;24.734;2023-06-01T00:20:01;19.90;61.80
79762;DHT22;69249;42.122;24.734;2023-06-01T00:22:28;20.00;61.80
79762;DHT22;69249;42.122;24.734;2023-06-01T00:25:00;20.10;61.20
79762;DHT22;69249;42.122;24.734;2023-06-01T00:27:25;20.00;61.40
79762;DHT22;69249;42.122;24.734;2023-06-01T00:29:51;20.00;61.60
79762;DHT22;69249;42.122;24.734;2023-06-01T00:32:17;19.80;62.30
79762;DHT22;69249;42.122;24.734;2023-06-01T00:34:42;19.70;62.60
79762;DHT22;69249;42.122;24.734;2023-06-01T00:37:08;19.80;62.60
79762;DHT22;69249;42.122;24.734;2023-06-01T00:39:33;19.80;62.80
79762;DHT22;69249;42.122;24.734;2023-06-01T00:41:59;19.90;61.70
79762;DHT22;69249;42.122;24.734;2023-06-01T00:44:25;19.90;61.40
79762;DHT22;69249;42.122;24.734;2023-06-01T00:46:51;20.00;61.10
79762;DHT22;69249;42.122;24.734;2023-06-01T00:49:18;19.90;61.30
79762;DHT22;69249;42.122;24.734;2023-06-01T00:51:44;20.00;61.00
79762;DHT22;69249;42.122;24.734;2023-06-01T00:54:10;20.00;60.50
79762;DHT22;69249;42.122;24.734;2023-06-01T00:56:37;19.90;61.10
79762;DHT22;69249;42.122;24.734;2023-06-01T00:59:03;19.60;62.00
79762;DHT22;69249;42.122;24.734;2023-06-01T01:01:28;19.60;62.10
79762;DHT22;69249;42.122;24.734;2023-06-01T01:03:54;19.70;61.40
79762;DHT22;69249;42.122;24.734;2023-06-01T01:06:34;19.80;61.00
79762;DHT22;69249;42.122;24.734;2023-06-01T01:09:28;19.70;61.80
79762;DHT22;69249;42.122;24.734;2023-06-01T01:12:02;19.60;61.80
79762;DHT22;69249;42.122;24.734;2023-06-01T01:14:45;19.70;61.70
79762;DHT22;69249;42.122;24.734;2023-06-01T01:17:18;19.60;61.80
79762;DHT22;69249;42.122;24.734;2023-06-01T01:20:01;19.50;62.10
79762;DHT22;69249;42.122;24.734;2023-06-01T01:27:59;19.30;63.00
79762;DHT22;69249;42.122;24.734;2023-06-01T01:30:28;19.20;63.40
79762;DHT22;69249;42.122;24.734;2023-06-01T01:32:55;19.20;63.10
79762;DHT22;69249;42.122;24.734;2023-06-01T01:35:23;19.30;63.00
79762;DHT22;69249;42.122;24.734;2023-06-01T01:37:53;19.20;63.10
79762;DHT22;69249;42.122;24.734;2023-06-01T01:40:19;19.10;63.50
79762;DHT22;69249;42.122;24.734;2023-06-01T01:42:45;19.00;63.50
79762;DHT22;69249;42.122;24.734;2023-06-01T01:45:12;19.00;64.00
79762;DHT22;69249;42.122;24.734;2023-06-01T01:50:15;18.80;64.50
79762;DHT22;69249;42.122;24.734;2023-06-01T01:52:42;18.90;64.20
79762;DHT22;69249;42.122;24.734;2023-06-01T01:55:09;18.80;64.50
79762;DHT22;69249;42.122;24.734;2023-06-01T01:57:35;18.90;64.10
79762;DHT22;69249;42.122;24.734;2023-06-01T02:00:03;18.90;64.10
79762;DHT22;69249;42.122;24.734;2023-06-01T02:02:29;19.00;63.80
79762;DHT22;69249;42.122;24.734;2023-06-01T02:04:55;18.80;64.30
79762;DHT22;69249;42.122;24.734;2023-06-01T02:07:21;18.70;64.80
79762;DHT22;69249;42.122;24.734;2023-06-01T02:09:47;18.70;64.80
79762;DHT22;69249;42.122;24.734;2023-06-01T02:12:13;18.80;64.40
79762;DHT22;69249;42.122;24.734;2023-06-01T02:14:38;18.90;64.40
79762;DHT22;69249;42.122;24.734;2023-06-01T02:17:04;19.10;63.00
79762;DHT22;69249;42.122;24.734;2023-06-01T02:19:30;19.00;63.60
79762;DHT22;69249;42.122;24.734;2023-06-01T02:21:56;18.90;63.70
79762;DHT22;69249;42.122;24.734;2023-06-01T02:24:22;19.00;63.60
79762;DHT22;69249;42.122;24.734;2023-06-01T02:26:48;19.00;63.10
79762;DHT22;69249;42.122;24.734;2023-06-01T02:29:17;19.00;62.80
79762;DHT22;69249;42.122;24.734;2023-06-01T02:31:45;19.00;62.90
79762;DHT22;69249;42.122;24.734;2023-06-01T02:34:11;18.90;63.40
79762;DHT22;69249;42.122;24.734;2023-06-01T02:36:36;18.80;64.00
79762;DHT22;69249;42.122;24.734;2023-06-01T02:39:02;18.70;64.40
79762;DHT22;69249;42.122;24.734;2023-06-01T02:41:28;18.60;65.00
79762;DHT22;69249;42.122;24.734;2023-06-01T02:43:54;18.40;65.70
79762;DHT22;69249;42.122;24.734;2023-06-01T02:46:20;18.40;66.10
79762;DHT22;69249;42.122;24.734;2023-06-01T02:48:46;18.40;65.90
79762;DHT22;69249;42.122;24.734;2023-06-01T02:51:12;18.40;65.80
79762;DHT22;69249;42.122;24.734;2023-06-01T02:53:41;18.40;65.80
79762;DHT22;69249;42.122;24.734;2023-06-01T02:56:07;18.60;64.90
79762;DHT22;69249;42.122;24.734;2023-06-01T02:58:33;18.80;64.40
79762;DHT22;69249;42.122;24.734;2023-06-01T03:00:59;18.70;64.80
79762;DHT22;69249;42.122;24.734;2023-06-01T03:03:24;18.70;64.60
79762;DHT22;69249;42.122;24.734;2023-06-01T03:05:51;18.60;64.90
79762;DHT22;69249;42.122;24.734;2023-06-01T03:08:17;18.50;65.20
79762;DHT22;69249;42.122;24.734;2023-06-01T03:10:43;18.50;65.70
79762;DHT22;69249;42.122;24.734;2023-06-01T03:13:09;18.50;65.60
79762;DHT22;69249;42.122;24.734;2023-06-01T03:15:35;18.50;66.00
79762;DHT22;69249;42.122;24.734;2023-06-01T03:18:03;18.50;66.00
79762;DHT22;69249;42.122;24.734;2023-06-01T03:20:29;18.50;66.10
79762;DHT22;69249;42.122;24.734;2023-06-01T03:22:55;18.60;65.60
79762;DHT22;69249;42.122;24.734;2023-06-01T03:25:21;18.60;65.30
79762;DHT22;69249;42.122;24.734;2023-06-01T03:27:46;18.90;64.40
79762;DHT22;69249;42.122;24.734;2023-06-01T03:30:12;19.00;64.00
79762;DHT22;69249;42.122;24.734;2023-06-01T03:32:41;18.90;64.20
79762;DHT22;69249;42.122;24.734;2023-06-01T03:35:08;18.70;64.80
79762;DHT22;69249;42.122;24.734;2023-06-01T03:37:39;18.60;65.30
79762;DHT22;69249;42.122;24.734;2023-06-01T03:40:06;18.60;65.30
79762;DHT22;69249;42.122;24.734;2023-06-01T03:42:46;18.70;65.40
79762;DHT22;69249;42.122;24.734;2023-06-01T03:45:13;18.70;65.30
79762;DHT22;69249;42.122;24.734;2023-06-01T03:47:39;18.80;66.20
79762;DHT22;69249;42.122;24.734;2023-06-01T03:50:07;18.80;65.30
79762;DHT22;69249;42.122;24.734;2023-06-01T03:52:34;18.90;64.70
79762;DHT22;69249;42.122;24.734;2023-06-01T03:55:02;19.10;63.40
79762;DHT22;69249;42.122;24.734;2023-06-01T03:57:28;19.40;62.30
79762;DHT22;69249;42.122;24.734;2023-06-01T03:59:53;19.40;62.00
79762;DHT22;69249;42.122;24.734;2023-06-01T04:02:19;19.30;62.00
79762;DHT22;69249;42.122;24.734;2023-06-01T04:04:45;19.20;63.00
79762;DHT22;69249;42.122;24.734;2023-06-01T04:07:15;19.10;63.60
79762;DHT22;69249;42.122;24.734;2023-06-01T04:09:44;19.10;63.40
79762;DHT22;69249;42.122;24.734;2023-06-01T04:12:13;19.20;63.30
79762;DHT22;69249;42.122;24.734;2023-06-01T04:14:39;19.30;63.50
79762;DHT22;69249;42.122;24.734;2023-06-01T04:17:05;19.40;62.80
79762;DHT22;69249;42.122;24.734;2023-06-01T04:19:32;19.50;62.00
79762;DHT22;69249;42.122;24.734;2023-06-01T04:21:58;19.70;61.60
79762;DHT22;69249;42.122;24.734;2023-06-01T04:24:23;19.80;60.80
79762;DHT22;69249;42.122;24.734;2023-06-01T04:26:49;19.80;60.80
79762;DHT22;69249;42.122;24.734;2023-06-01T04:29:16;19.60;60.60
79762;DHT22;69249;42.122;24.734;2023-06-01T04:31:45;19.60;61.10
79762;DHT22;69249;42.122;24.734;2023-06-01T04:34:11;19.60;61.10
79762;DHT22;69249;42.122;24.734;2023-06-01T04:36:37;19.80;60.70
79762;DHT22;69249;42.122;24.734;2023-06-01T04:39:05;19.90;59.90
79762;DHT22;69249;42.122;24.734;2023-06-01T04:41:32;20.00;59.60
79762;DHT22;69249;42.122;24.734;2023-06-01T04:43:58;19.90;60.00
79762;DHT22;69249;42.122;24.734;2023-06-01T04:46:25;19.90;60.10
79762;DHT22;69249;42.122;24.734;2023-06-01T04:48:52;20.00;59.60
79762;DHT22;69249;42.122;24.734;2023-06-01T04:51:19;20.10;59.80
79762;DHT22;69249;42.122;24.734;2023-06-01T04:53:50;20.10;59.60
79762;DHT22;69249;42.122;24.734;2023-06-01T04:56:21;20.30;59.50
79762;DHT22;69249;42.122;24.734;2023-06-01T04:58:53;20.40;59.40
79762;DHT22;69249;42.122;24.734;2023-06-01T05:01:21;20.50;58.80
79762;DHT22;69249;42.122;24.734;2023-06-01T05:03:51;20.60;59.20
79762;DHT22;69249;42.122;24.734;2023-06-01T05:06:19;20.60;59.20
79762;DHT22;69249;42.122;24.734;2023-06-01T05:08:48;20.70;59.20
79762;DHT22;69249;42.122;24.734;2023-06-01T05:11:14;20.80;58.60
79762;DHT22;69249;42.122;24.734;2023-06-01T05:13:40;20.90;57.60
79762;DHT22;69249;42.122;24.734;2023-06-01T05:16:08;20.90;58.30
79762;DHT22;69249;42.122;24.734;2023-06-01T05:18:34;21.00;57.80
79762;DHT22;69249;42.122;24.734;2023-06-01T05:21:01;20.90;58.00
79762;DHT22;69249;42.122;24.734;2023-06-01T05:23:27;21.10;56.10
79762;DHT22;69249;42.122;24.734;2023-06-01T05:25:54;21.20;55.90
79762;DHT22;69249;42.122;24.734;2023-06-01T05:28:31;21.20;56.70
79762;DHT22;69249;42.122;24.734;2023-06-01T05:30:57;21.20;57.20
79762;DHT22;69249;42.122;24.734;2023-06-01T05:33:23;21.20;56.90
79762;DHT22;69249;42.122;24.734;2023-06-01T05:35:49;21.20;56.60
79762;DHT22;69249;42.122;24.734;2023-06-01T05:38:15;21.20;57.10
79762;DHT22;69249;42.122;24.734;2023-06-01T05:40:41;21.20;57.20
79762;DHT22;69249;42.122;24.734;2023-06-01T05:43:07;21.20;56.90
79762;DHT22;69249;42.122;24.734;2023-06-01T05:45:33;21.40;57.00
79762;DHT22;69249;42.122;24.734;2023-06-01T05:47:59;21.50;55.90
79762;DHT22;69249;42.122;24.734;2023-06-01T05:50:25;21.60;56.10
79762;DHT22;69249;42.122;24.734;2023-06-01T05:52:51;21.60;56.70
79762;DHT22;69249;42.122;24.734;2023-06-01T05:55:17;21.60;55.90
79762;DHT22;69249;42.122;24.734;2023-06-01T05:57:42;21.80;54.60
79762;DHT22;69249;42.122;24.734;2023-06-01T06:00:08;22.00;53.30
79762;DHT22;69249;42.122;24.734;2023-06-01T06:02:39;22.10;53.20
79762;DHT22;69249;42.122;24.734;2023-06-01T06:05:07;22.20;53.50
79762;DHT22;69249;42.122;24.734;2023-06-01T06:07:34;22.30;53.90
79762;DHT22;69249;42.122;24.734;2023-06-01T06:10:00;22.40;53.10
79762;DHT22;69249;42.122;24.734;2023-06-01T06:12:27;22.60;52.60
79762;DHT22;69249;42.122;24.734;2023-06-01T06:14:55;22.60;52.90
79762;DHT22;69249;42.122;24.734;2023-06-01T06:17:21;22.60;52.40
79762;DHT22;69249;42.122;24.734;2023-06-01T06:19:50;22.70;52.50
79762;DHT22;69249;42.122;24.734;2023-06-01T06:22:18;22.70;51.90
79762;DHT22;69249;42.122;24.734;2023-06-01T06:24:44;22.80;51.40
79762;DHT22;69249;42.122;24.734;2023-06-01T06:27:10;22.90;51.10
79762;DHT22;69249;42.122;24.734;2023-06-01T06:29:36;22.90;51.40
79762;DHT22;69249;42.122;24.734;2023-06-01T06:32:02;23.00;51.40
79762;DHT22;69249;42.122;24.734;2023-06-01T06:34:28;23.10;51.70
79762;DHT22;69249;42.122;24.734;2023-06-01T06:37:09;23.20;51.00
79762;DHT22;69249;42.122;24.734;2023-06-01T06:39:36;23.30;49.80
79762;DHT22;69249;42.122;24.734;2023-06-01T06:42:03;23.30;50.00
79762;DHT22;69249;42.122;24.734;2023-06-01T06:44:29;23.40;49.80
79762;DHT22;69249;42.122;24.734;2023-06-01T06:46:59;23.40;49.80
79762;DHT22;69249;42.122;24.734;2023-06-01T06:49:26;23.40;49.80
79762;DHT22;69249;42.122;24.734;2023-06-01T06:51:52;23.30;50.20
79762;DHT22;69249;42.122;24.734;2023-06-01T06:54:18;23.30;50.10
79762;DHT22;69249;42.122;24.734;2023-06-01T06:56:43;23.30;49.70
79762;DHT22;69249;42.122;24.734;2023-06-01T06:59:10;23.20;50.10
79762;DHT22;69249;42.122;24.734;2023-06-01T07:01:36;23.40;49.00
79762;DHT22;69249;42.122;24.734;2023-06-01T07:04:03;23.60;49.00
79762;DHT22;69249;42.122;24.734;2023-06-01T07:06:30;23.70;49.10
79762;DHT22;69249;42.122;24.734;2023-06-01T07:08:55;23.70;49.20
79762;DHT22;69249;42.122;24.734;2023-06-01T07:11:21;23.80;47.30
79762;DHT22;69249;42.122;24.734;2023-06-01T07:13:49;23.90;47.30
79762;DHT22;69249;42.122;24.734;2023-06-01T07:16:17;24.10;47.00
79762;DHT22;69249;42.122;24.734;2023-06-01T07:18:43;24.10;47.50
79762;DHT22;69249;42.122;24.734;2023-06-01T07:21:09;24.20;47.60
79762;DHT22;69249;42.122;24.734;2023-06-01T07:23:34;24.10;47.70
79762;DHT22;69249;42.122;24.734;2023-06-01T07:26:00;24.10;47.20
79762;DHT22;69249;42.122;24.734;2023-06-01T07:28:25;24.00;47.20
79762;DHT22;69249;42.122;24.734;2023-06-01T07:30:53;24.10;47.60
79762;DHT22;69249;42.122;24.734;2023-06-01T07:33:19;24.30;47.50
79762;DHT22;69249;42.122;24.734;2023-06-01T07:35:45;24.50;47.10
79762;DHT22;69249;42.122;24.734;2023-06-01T07:38:12;24.60;46.90
79762;DHT22;69249;42.122;24.734;2023-06-01T07:40:39;24.70;46.10
79762;DHT22;69249;42.122;24.734;2023-06-01T07:43:04;24.90;45.50
79762;DHT22;69249;42.122;24.734;2023-06-01T07:45:30;25.00;45.30
79762;DHT22;69249;42.122;24.734;2023-06-01T07:47:56;25.10;45.40
79762;DHT22;69249;42.122;24.734;2023-06-01T07:50:22;25.20;44.80
79762;DHT22;69249;42.122;24.734;2023-06-01T07:52:53;25.20;44.90
79762;DHT22;69249;42.122;24.734;2023-06-01T07:55:21;25.30;44.90
79762;DHT22;69249;42.122;24.734;2023-06-01T07:57:47;25.50;45.50
79762;DHT22;69249;42.122;24.734;2023-06-01T08:00:13;25.60;44.30
79762;DHT22;69249;42.122;24.734;2023-06-01T08:02:40;25.70;43.60
79762;DHT22;69249;42.122;24.734;2023-06-01T08:05:07;25.90;42.60
79762;DHT22;69249;42.122;24.734;2023-06-01T08:07:33;25.90;43.60
79762;DHT22;69249;42.122;24.734;2023-06-01T08:09:59;26.00;43.90
79762;DHT22;69249;42.122;24.734;2023-06-01T08:12:24;26.10;43.00
79762;DHT22;69249;42.122;24.734;2023-06-01T08:14:51;26.10;43.00
79762;DHT22;69249;42.122;24.734;2023-06-01T08:17:17;26.20;42.90
79762;DHT22;69249;42.122;24.734;2023-06-01T08:19:44;26.30;43.20
79762;DHT22;69249;42.122;24.734;2023-06-01T08:22:09;26.30;42.40
79762;DHT22;69249;42.122;24.734;2023-06-01T08:24:37;26.40;42.20
79762;DHT22;69249;42.122;24.734;2023-06-01T08:29:46;26.70;40.80
79762;DHT22;69249;42.122;24.734;2023-06-01T08:32:12;26.80;40.90
79762;DHT22;69249;42.122;24.734;2023-06-01T08:34:38;26.90;40.40
79762;DHT22;69249;42.122;24.734;2023-06-01T08:37:04;27.00;40.00
79762;DHT22;69249;42.122;24.734;2023-06-01T08:39:32;27.10;38.80
79762;DHT22;69249;42.122;24.734;2023-06-01T08:45:04;27.20;40.80
79762;DHT22;69249;42.122;24.734;2023-06-01T08:47:31;27.30;41.10
79762;DHT22;69249;42.122;24.734;2023-06-01T08:50:00;27.40;40.90
79762;DHT22;69249;42.122;24.734;2023-06-01T08:52:28;27.40;40.60
79762;DHT22;69249;42.122;24.734;2023-06-01T08:55:01;27.50;39.80
79762;DHT22;69249;42.122;24.734;2023-06-01T08:57:31;27.60;40.80
79762;DHT22;69249;42.122;24.734;2023-06-01T08:59:57;27.60;40.60
79762;DHT22;69249;42.122;24.734;2023-06-01T09:02:25;27.70;39.80
79762;DHT22;69249;42.122;24.734;2023-06-01T09:04:51;27.80;37.60
79762;DHT22;69249;42.122;24.734;2023-06-01T09:07:17;27.90;36.30
79762;DHT22;69249;42.122;24.734;2023-06-01T09:09:43;27.90;37.40
79762;DHT22;69249;42.122;24.734;2023-06-01T09:12:23;28.00;37.80
79762;DHT22;69249;42.122;24.734;2023-06-01T09:15:04;28.00;37.00
79762;DHT22;69249;42.122;24.734;2023-06-01T09:17:33;28.10;35.40
79762;DHT22;69249;42.122;24.734;2023-06-01T09:19:58;28.10;35.40
79762;DHT22;69249;42.122;24.734;2023-06-01T09:22:24;28.10;36.30
79762;DHT22;69249;42.122;24.734;2023-06-01T09:24:57;28.10;35.10
79762;DHT22;69249;42.122;24.734;2023-06-01T09:27:26;28.10;34.70
79762;DHT22;69249;42.122;24.734;2023-06-01T09:29:54;28.10;33.80
79762;DHT22;69249;42.122;24.734;2023-06-01T09:32:20;28.00;33.90
79762;DHT22;69249;42.122;24.734;2023-06-01T09:34:48;28.10;33.90
79762;DHT22;69249;42.122;24.734;2023-06-01T09:37:14;28.30;34.30
79762;DHT22;69249;42.122;24.734;2023-06-01T09:39:40;28.40;35.10
79762;DHT22;69249;42.122;24.734;2023-06-01T09:42:06;28.50;35.00
79762;DHT22;69249;42.122;24.734;2023-06-01T09:44:36;28.50;35.00
79762;DHT22;69249;42.122;24.734;2023-06-01T09:47:07;28.60;33.70
79762;DHT22;69249;42.122;24.734;2023-06-01T09:49:50;28.60;35.80
79762;DHT22;69249;42.122;24.734;2023-06-01T09:52:16;28.80;32.60
79762;DHT22;69249;42.122;24.734;2023-06-01T09:54:51;28.90;33.60
79762;DHT22;69249;42.122;24.734;2023-06-01T09:57:24;29.00;31.10
79762;DHT22;69249;42.122;24.734;2023-06-01T09:59:50;28.90;31.10
79762;DHT22;69249;42.122;24.734;2023-06-01T10:02:22;29.00;32.20
79762;DHT22;69249;42.122;24.734;2023-06-01T10:04:52;29.00;32.40
79762;DHT22;69249;42.122;24.734;2023-06-01T10:07:20;29.10;32.70
79762;DHT22;69249;42.122;24.734;2023-06-01T10:09:55;29.20;32.80
79762;DHT22;69249;42.122;24.734;2023-06-01T10:12:21;29.30;33.60
79762;DHT22;69249;42.122;24.734;2023-06-01T10:14:48;29.30;33.70
79762;DHT22;69249;42.122;24.734;2023-06-01T10:17:19;29.40;32.60
79762;DHT22;69249;42.122;24.734;2023-06-01T10:19:45;29.30;31.30
79762;DHT22;69249;42.122;24.734;2023-06-01T10:22:11;29.40;31.10
79762;DHT22;69249;42.122;24.734;2023-06-01T10:24:38;29.50;31.30
79762;DHT22;69249;42.122;24.734;2023-06-01T10:29:33;29.50;31.60
79762;DHT22;69249;42.122;24.734;2023-06-01T10:31:59;29.50;31.50
79762;DHT22;69249;42.122;24.734;2023-06-01T10:34:42;29.60;31.50
79762;DHT22;69249;42.122;24.734;2023-06-01T10:37:14;29.70;30.60
79762;DHT22;69249;42.122;24.734;2023-06-01T10:39:43;29.70;29.20
79762;DHT22;69249;42.122;24.734;2023-06-01T10:42:37;29.80;28.80
79762;DHT22;69249;42.122;24.734;2023-06-01T10:45:03;29.70;28.10
79762;DHT22;69249;42.122;24.734;2023-06-01T10:52:29;29.80;29.40
79762;DHT22;69249;42.122;24.734;2023-06-01T10:57:43;30.00;27.50
79762;DHT22;69249;42.122;24.734;2023-06-01T11:00:16;29.90;27.20
79762;DHT22;69249;42.122;24.734;2023-06-01T11:02:59;30.00;27.30
79762;DHT22;69249;42.122;24.734;2023-06-01T11:05:45;30.00;27.10
79762;DHT22;69249;42.122;24.734;2023-06-01T11:10:59;30.60;26.60
79762;DHT22;69249;42.122;24.734;2023-06-01T11:13:30;30.90;26.60
79762;DHT22;69249;42.122;24.734;2023-06-01T11:23:42;36.50;21.60
79762;DHT22;69249;42.122;24.734;2023-06-01T11:26:08;38.70;19.80
79762;DHT22;69249;42.122;24.734;2023-06-01T11:28:34;40.90;18.80
79762;DHT22;69249;42.122;24.734;2023-06-01T11:31:09;42.70;16.20
79762;DHT22;69249;42.122;24.734;2023-06-01T11:33:38;44.30;16.50
79762;DHT22;69249;42.122;24.734;2023-06-01T11:36:05;45.90;15.00
79762;DHT22;69249;42.122;24.734;2023-06-01T11:38:35;47.50;13.30
79762;DHT22;69249;42.122;24.734;2023-06-01T11:41:03;48.70;12.90
79762;DHT22;69249;42.122;24.734;2023-06-01T11:43:30;50.50;12.00
79762;DHT22;69249;42.122;24.734;2023-06-01T11:46:06;51.70;11.70
79762;DHT22;69249;42.122;24.734;2023-06-01T11:48:33;52.50;11.20
79762;DHT22;69249;42.122;24.734;2023-06-01T11:51:03;53.20;10.60
79762;DHT22;69249;42.122;24.734;2023-06-01T11:53:30;53.00;10.30
79762;DHT22;69249;42.122;24.734;2023-06-01T11:55:57;51.80;10.10
79762;DHT22;69249;42.122;24.734;2023-06-01T11:58:28;50.00;10.90
79762;DHT22;69249;42.122;24.734;2023-06-01T12:00:55;48.60;11.60
79762;DHT22;69249;42.122;24.734;2023-06-01T12:03:21;46.90;12.40
79762;DHT22;69249;42.122;24.734;2023-06-01T12:05:50;45.00;13.10
79762;DHT22;69249;42.122;24.734;2023-06-01T12:08:18;43.50;13.60
79762;DHT22;69249;42.122;24.734;2023-06-01T12:10:48;42.20;14.50
79762;DHT22;69249;42.122;24.734;2023-06-01T12:13:16;41.10;15.30
79762;DHT22;69249;42.122;24.734;2023-06-01T12:15:43;40.30;15.90
79762;DHT22;69249;42.122;24.734;2023-06-01T12:18:12;39.40;16.40
79762;DHT22;69249;42.122;24.734;2023-06-01T12:20:46;38.50;17.00
79762;DHT22;69249;42.122;24.734;2023-06-01T12:23:14;37.70;18.40
79762;DHT22;69249;42.122;24.734;2023-06-01T12:25:55;37.00;17.70
79762;DHT22;69249;42.122;24.734;2023-06-01T12:28:23;36.00;18.20
79762;DHT22;69249;42.122;24.734;2023-06-01T12:31:09;35.40;18.60
79762;DHT22;69249;42.122;24.734;2023-06-01T12:33:36;34.70;20.10
79762;DHT22;69249;42.122;24.734;2023-06-01T12:36:03;34.30;20.70
79762;DHT22;69249;42.122;24.734;2023-06-01T12:38:49;34.10;21.20
79762;DHT22;69249;42.122;24.734;2023-06-01T12:41:16;33.60;20.90
79762;DHT22;69249;42.122;24.734;2023-06-01T12:43:53;33.30;20.60
79762;DHT22;69249;42.122;24.734;2023-06-01T12:46:26;33.10;21.50
79762;DHT22;69249;42.122;24.734;2023-06-01T12:48:54;33.00;20.90
79762;DHT22;69249;42.122;24.734;2023-06-01T12:51:35;33.00;21.70
79762;DHT22;69249;42.122;24.734;2023-06-01T12:54:02;32.80;20.70
79762;DHT22;69249;42.122;24.734;2023-06-01T12:56:28;32.60;21.50
79762;DHT22;69249;42.122;24.734;2023-06-01T12:58:54;32.30;21.70
79762;DHT22;69249;42.122;24.734;2023-06-01T13:01:20;32.20;21.90
79762;DHT22;69249;42.122;24.734;2023-06-01T13:03:46;32.00;22.90
79762;DHT22;69249;42.122;24.734;2023-06-01T13:06:11;32.00;23.10
79762;DHT22;69249;42.122;24.734;2023-06-01T13:08:37;31.80;22.10
79762;DHT22;69249;42.122;24.734;2023-06-01T13:11:03;31.70;22.50
79762;DHT22;69249;42.122;24.734;2023-06-01T13:13:30;31.70;22.40
79762;DHT22;69249;42.122;24.734;2023-06-01T13:15:56;31.60;22.70
79762;DHT22;69249;42.122;24.734;2023-06-01T13:18:21;31.50;22.10
79762;DHT22;69249;42.122;24.734;2023-06-01T13:20:47;31.40;21.20
79762;DHT22;69249;42.122;24.734;2023-06-01T13:23:13;31.30;22.10
79762;DHT22;69249;42.122;24.734;2023-06-01T13:25:39;31.30;22.30
79762;DHT22;69249;42.122;24.734;2023-06-01T13:28:05;31.20;22.20
79762;DHT22;69249;42.122;24.734;2023-06-01T13:30:33;31.10;21.30
79762;DHT22;69249;42.122;24.734;2023-06-01T13:33:00;31.00;22.10
79762;DHT22;69249;42.122;24.734;2023-06-01T13:35:26;30.90;22.90
79762;DHT22;69249;42.122;24.734;2023-06-01T13:37:52;30.90;23.00
79762;DHT22;69249;42.122;24.734;2023-06-01T13:40:18;30.90;23.50
79762;DHT22;69249;42.122;24.734;2023-06-01T13:42:48;30.90;24.10
79762;DHT22;69249;42.122;24.734;2023-06-01T13:45:14;30.90;24.00
79762;DHT22;69249;42.122;24.734;2023-06-01T13:47:40;30.90;24.30
79762;DHT22;69249;42.122;24.734;2023-06-01T13:50:06;30.90;23.90
79762;DHT22;69249;42.122;24.734;2023-06-01T13:52:33;31.10;23.60
79762;DHT22;69249;42.122;24.734;2023-06-01T13:54:59;31.00;23.00
79762;DHT22;69249;42.122;24.734;2023-06-01T13:57:24;30.90;22.90
79762;DHT22;69249;42.122;24.734;2023-06-01T13:59:50;31.00;23.10
79762;DHT22;69249;42.122;24.734;2023-06-01T14:02:16;31.10;23.60
79762;DHT22;69249;42.122;24.734;2023-06-01T14:04:42;31.10;23.30
79762;DHT22;69249;42.122;24.734;2023-06-01T14:07:08;31.10;23.60
79762;DHT22;69249;42.122;24.734;2023-06-01T14:09:34;31.20;23.60
79762;DHT22;69249;42.122;24.734;2023-06-01T14:11:59;31.10;22.30
79762;DHT22;69249;42.122;24.734;2023-06-01T14:14:25;31.10;22.90
79762;DHT22;69249;42.122;24.734;2023-06-01T14:16:51;31.10;23.60
79762;DHT22;69249;42.122;24.734;2023-06-01T14:19:16;31.20;24.70
79762;DHT22;69249;42.122;24.734;2023-06-01T14:21:42;31.30;23.50
79762;DHT22;69249;42.122;24.734;2023-06-01T14:24:08;31.30;23.60
79762;DHT22;69249;42.122;24.734;2023-06-01T14:26:33;31.30;22.70
79762;DHT22;69249;42.122;24.734;2023-06-01T14:28:59;31.20;23.20
79762;DHT22;69249;42.122;24.734;2023-06-01T14:31:24;31.10;23.20
79762;DHT22;69249;42.122;24.734;2023-06-01T14:33:50;31.30;24.00
79762;DHT22;69249;42.122;24.734;2023-06-01T14:36:16;31.30;24.30
79762;DHT22;69249;42.122;24.734;2023-06-01T14:38:42;31.40;24.20
79762;DHT22;69249;42.122;24.734;2023-06-01T14:41:07;31.40;24.10
79762;DHT22;69249;42.122;24.734;2023-06-01T14:43:33;31.50;24.20
79762;DHT22;69249;42.122;24.734;2023-06-01T14:45:59;31.30;22.70
79762;DHT22;69249;42.122;24.734;2023-06-01T14:48:25;31.30;23.30
79762;DHT22;69249;42.122;24.734;2023-06-01T14:50:51;31.40;24.40
79762;DHT22;69249;42.122;24.734;2023-06-01T14:53:17;31.30;23.90
79762;DHT22;69249;42.122;24.734;2023-06-01T14:55:43;31.40;24.00
79762;DHT22;69249;42.122;24.734;2023-06-01T14:58:09;31.50;24.10
79762;DHT22;69249;42.122;24.734;2023-06-01T15:00:35;31.50;23.80
79762;DHT22;69249;42.122;24.734;2023-06-01T15:03:02;31.40;23.20
79762;DHT22;69249;42.122;24.734;2023-06-01T15:05:28;31.20;23.30
79762;DHT22;69249;42.122;24.734;2023-06-01T15:07:54;31.10;24.00
79762;DHT22;69249;42.122;24.734;2023-06-01T15:10:20;31.00;24.60
79762;DHT22;69249;42.122;24.734;2023-06-01T15:12:46;31.00;25.00
79762;DHT22;69249;42.122;24.734;2023-06-01T15:15:12;30.90;24.70
79762;DHT22;69249;42.122;24.734;2023-06-01T15:17:38;31.00;25.00
79762;DHT22;69249;42.122;24.734;2023-06-01T15:20:05;30.80;24.50
79762;DHT22;69249;42.122;24.734;2023-06-01T15:22:31;30.80;24.70
79762;DHT22;69249;42.122;24.734;2023-06-01T15:24:57;30.90;24.50
79762;DHT22;69249;42.122;24.734;2023-06-01T15:27:23;31.10;24.50
79762;DHT22;69249;42.122;24.734;2023-06-01T15:29:49;31.40;24.60
79762;DHT22;69249;42.122;24.734;2023-06-01T15:32:15;31.50;26.20
79762;DHT22;69249;42.122;24.734;2023-06-01T15:34:41;31.40;24.80
79762;DHT22;69249;42.122;24.734;2023-06-01T15:37:11;31.30;24.50
79762;DHT22;69249;42.122;24.734;2023-06-01T15:39:37;31.30;24.20
79762;DHT22;69249;42.122;24.734;2023-06-01T15:42:07;31.10;24.40
79762;DHT22;69249;42.122;24.734;2023-06-01T15:44:33;30.80;24.80
79762;DHT22;69249;42.122;24.734;2023-06-01T15:47:03;30.70;25.60
79762;DHT22;69249;42.122;24.734;2023-06-01T15:49:30;30.50;25.30
79762;DHT22;69249;42.122;24.734;2023-06-01T15:51:56;30.30;25.70